Time;durP1;ratioP1;P1;durP2;ratioP2;P2;SDS_P1;SDS_P2;PMS_P1;PMS_P2;Temp;Humidity;BMP_temperature;BMP_pressure;BME280_temperature;BME280_humidity;BME280_pressure;Samples;Min_cycle;Max_cycle;Signal;HPM_P1;HPM_P2
2023/09/20 00:01:02;;;;;;;4.28;1.30;;;;;;;11.54;100.00;97212.09;5005309;28;20073;-57
2023/09/20 00:03:30;;;;;;;4.03;1.73;;;;;;;11.62;100.00;97217.00;5002792;28;20052;-57
2023/09/20 00:05:59;;;;;;;3.72;1.60;;;;;;;11.74;100.00;97210.53;5004651;28;20041;-57
2023/09/20 00:08:26;;;;;;;3.15;1.30;;;;;;;11.74;100.00;97208.66;5004970;28;20045;-59
2023/09/20 00:10:52;;;;;;;3.10;1.42;;;;;;;11.60;100.00;97207.50;5004304;28;20497;-57
2023/09/20 00:13:19;;;;;;;3.47;1.67;;;;;;;11.56;100.00;97207.19;5003372;28;20125;-58
2023/09/20 00:15:45;;;;;;;2.55;1.45;;;;;;;11.42;100.00;97202.25;5006236;28;20460;-59
2023/09/20 00:18:12;;;;;;;2.88;1.45;;;;;;;11.29;100.00;97200.81;5005064;28;20576;-59
2023/09/20 00:20:39;;;;;;;5.50;1.40;;;;;;;11.17;100.00;97195.56;5006753;28;20037;-59
2023/09/20 00:23:07;;;;;;;3.13;1.60;;;;;;;11.14;100.00;97200.69;5004682;28;20045;-57
2023/09/20 00:25:33;;;;;;;1.98;1.13;;;;;;;11.19;100.00;97196.16;5003988;28;20125;-59
2023/09/20 00:28:00;;;;;;;2.97;1.40;;;;;;;11.29;100.00;97200.81;5003562;28;20057;-59
2023/09/20 00:30:27;;;;;;;3.92;1.70;;;;;;;11.29;100.00;97192.69;5003163;28;20060;-59
2023/09/20 00:32:54;;;;;;;4.30;1.70;;;;;;;11.37;100.00;97194.09;5004824;28;20064;-59
2023/09/20 00:35:21;;;;;;;3.63;1.60;;;;;;;11.50;100.00;97197.41;5003338;28;20038;-59
2023/09/20 00:37:49;;;;;;;4.40;1.20;;;;;;;11.61;100.00;97196.38;5004095;28;20049;-59
2023/09/20 00:40:15;;;;;;;4.35;1.50;;;;;;;11.77;100.00;97183.72;5003418;28;20038;-59
2023/09/20 00:42:45;;;;;;;4.93;1.48;;;;;;;11.78;100.00;97184.53;5003309;28;20041;-59
2023/09/20 00:45:13;;;;;;;3.88;1.40;;;;;;;11.59;100.00;97187.69;5002278;28;20046;-59
2023/09/20 00:47:45;;;;;;;3.78;1.30;;;;;;;11.51;100.00;97183.59;5005580;28;20046;-59
2023/09/20 00:50:12;;;;;;;4.13;1.35;;;;;;;11.44;100.00;97191.16;5009184;28;20033;-59
2023/09/20 00:52:45;;;;;;;4.25;1.50;;;;;;;11.43;100.00;97182.19;5017362;28;20061;-59
2023/09/20 00:55:20;;;;;;;3.90;1.63;;;;;;;11.33;100.00;97190.25;5003169;28;20038;-59
2023/09/20 00:57:51;;;;;;;2.80;1.35;;;;;;;11.25;100.00;97188.88;4998250;28;20045;-59
2023/09/20 01:00:21;;;;;;;2.87;1.43;;;;;;;11.26;100.00;97187.78;5000940;28;20046;-59
2023/09/20 01:02:51;;;;;;;4.75;1.60;;;;;;;11.21;100.00;97184.22;4997908;28;20125;-59
2023/09/20 01:05:21;;;;;;;3.35;1.60;;;;;;;11.31;100.00;97190.53;4990256;28;20038;-59
2023/09/20 01:07:50;;;;;;;2.90;1.40;;;;;;;11.51;100.00;97190.91;5003944;28;20050;-59
2023/09/20 01:10:23;;;;;;;4.28;1.60;;;;;;;11.62;100.00;97187.19;4986012;28;20065;-59
2023/09/20 01:12:53;;;;;;;6.20;2.38;;;;;;;11.64;100.00;97182.31;5004093;28;20042;-59
2023/09/20 01:15:21;;;;;;;2.85;1.30;;;;;;;11.61;100.00;97190.94;4984968;28;20141;-59
2023/09/20 01:17:49;;;;;;;3.67;1.50;;;;;;;11.67;100.00;97194.50;4984586;28;20056;-59
2023/09/20 01:20:20;;;;;;;3.67;1.63;;;;;;;11.84;100.00;97183.47;5007641;28;20042;-59
2023/09/20 01:22:47;;;;;;;4.78;1.48;;;;;;;11.91;100.00;97185.94;5002216;28;20141;-59
2023/09/20 01:25:24;;;;;;;3.03;1.58;;;;;;;11.73;100.00;97187.22;4988282;28;20084;-59
2023/09/20 01:27:52;;;;;;;4.57;1.88;;;;;;;11.66;100.00;97188.28;5004580;28;20061;-58
2023/09/20 01:30:18;;;;;;;6.80;1.70;;;;;;;11.62;100.00;97184.47;5002365;28;20042;-57
2023/09/20 01:32:45;;;;;;;3.22;1.48;;;;;;;11.61;100.00;97180.09;5001365;28;20053;-59
2023/09/20 01:35:16;;;;;;;4.70;1.70;;;;;;;11.66;100.00;97177.44;4999257;28;20809;-59
2023/09/20 01:37:43;;;;;;;4.28;1.83;;;;;;;11.68;100.00;97179.88;4997840;28;20105;-58
2023/09/20 01:40:15;;;;;;;3.17;1.50;;;;;;;11.72;100.00;97180.97;5003795;28;20038;-59
2023/09/20 01:42:58;;;;;;;3.05;1.58;;;;;;;11.88;100.00;97189.19;5000542;28;20132;-59
2023/09/20 01:45:25;;;;;;;3.00;1.50;;;;;;;11.86;100.00;97177.81;4997311;28;20097;-59
2023/09/20 01:47:53;;;;;;;4.43;1.38;;;;;;;11.83;100.00;97173.69;5002669;28;20511;-58
2023/09/20 01:50:24;;;;;;;3.83;1.60;;;;;;;11.86;100.00;97175.09;4983857;28;20041;-60
2023/09/20 01:52:56;;;;;;;3.38;1.63;;;;;;;11.96;100.00;97180.53;5001748;28;20034;-59
2023/09/20 01:55:24;;;;;;;3.05;1.23;;;;;;;12.00;100.00;97178.94;5006066;28;20045;-58
2023/09/20 01:57:52;;;;;;;4.25;1.70;;;;;;;11.99;100.00;97182.72;4986602;28;20617;-59
2023/09/20 02:00:31;;;;;;;6.03;1.98;;;;;;;11.95;100.00;97178.91;4992995;28;20042;-59
2023/09/20 02:03:00;;;;;;;3.55;1.67;;;;;;;11.96;100.00;97180.53;5002444;28;20041;-59
2023/09/20 02:05:27;;;;;;;3.42;1.52;;;;;;;12.06;100.00;97177.09;4993045;28;20050;-59
2023/09/20 02:07:57;;;;;;;3.05;1.30;;;;;;;12.10;100.00;97168.13;5006267;28;20037;-59
2023/09/20 02:10:24;;;;;;;4.38;1.52;;;;;;;12.24;100.00;97170.34;5006301;28;20100;-58
2023/09/20 02:12:53;;;;;;;4.00;1.92;;;;;;;12.25;100.00;97163.00;5006644;28;20056;-59
2023/09/20 02:15:21;;;;;;;3.72;1.40;;;;;;;12.07;100.00;97165.13;5004721;28;20065;-59
2023/09/20 02:17:48;;;;;;;2.95;1.10;;;;;;;12.14;100.00;97167.59;5012003;28;20129;-58
2023/09/20 02:20:25;;;;;;;2.58;1.25;;;;;;;12.09;100.00;97166.50;5005267;28;20517;-59
2023/09/20 02:22:54;;;;;;;3.78;1.40;;;;;;;12.03;100.00;97162.13;5005935;28;20081;-59
2023/09/20 02:25:22;;;;;;;3.17;1.63;;;;;;;11.92;100.00;97160.44;5006552;28;20045;-57
2023/09/20 02:27:57;;;;;;;4.45;1.75;;;;;;;11.92;100.00;97163.16;5006738;28;20041;-59
2023/09/20 02:30:28;;;;;;;2.75;1.25;;;;;;;11.95;100.00;97165.34;5005217;28;20828;-57
2023/09/20 02:32:58;;;;;;;3.15;1.50;;;;;;;12.02;100.00;97154.25;5004623;28;20046;-59
2023/09/20 02:35:27;;;;;;;3.47;1.30;;;;;;;12.00;100.00;97153.69;5005709;28;20068;-57
2023/09/20 02:37:54;;;;;;;3.60;1.30;;;;;;;12.06;100.00;97158.88;4991865;28;20031;-59
2023/09/20 02:40:23;;;;;;;2.35;1.33;;;;;;;12.06;100.00;97156.16;5005255;28;20046;-59
2023/09/20 02:42:58;;;;;;;4.95;1.73;;;;;;;11.98;100.00;97162.13;4988838;28;20136;-59
2023/09/20 02:45:29;;;;;;;2.70;1.30;;;;;;;11.99;100.00;97162.91;4992112;28;20058;-59
2023/09/20 02:47:57;;;;;;;5.00;1.60;;;;;;;11.87;100.00;97158.50;4988993;28;20622;-57
2023/09/20 02:50:25;;;;;;;6.50;1.52;;;;;;;11.68;100.00;97155.47;4987089;28;20046;-59
2023/09/20 02:52:54;;;;;;;3.05;1.65;;;;;;;11.56;100.00;97153.78;5006300;28;20072;-59
2023/09/20 02:55:22;;;;;;;2.97;1.45;;;;;;;11.60;100.00;97159.50;5007815;28;20037;-56
2023/09/20 02:57:52;;;;;;;3.40;1.52;;;;;;;11.60;100.00;97158.69;5009772;28;20045;-59
2023/09/20 03:00:27;;;;;;;3.60;1.50;;;;;;;11.46;100.00;97153.72;4983307;28;20053;-60
2023/09/20 03:02:57;;;;;;;3.25;1.60;;;;;;;11.45;100.00;97155.63;4987876;28;20046;-59
2023/09/20 03:05:26;;;;;;;5.72;2.25;;;;;;;11.54;100.00;97147.81;4998223;28;20057;-57
2023/09/20 03:07:54;;;;;;;5.70;1.73;;;;;;;11.53;100.00;97139.94;5006487;28;20069;-59
2023/09/20 03:10:22;;;;;;;3.88;1.75;;;;;;;11.50;100.00;97140.47;5005300;28;20665;-59
2023/09/20 03:12:51;;;;;;;3.75;1.50;;;;;;;11.44;100.00;97139.63;4987937;28;20073;-58
2023/09/20 03:15:22;;;;;;;3.42;1.60;;;;;;;11.45;100.00;97138.53;4987071;28;20037;-58
2023/09/20 03:17:51;;;;;;;3.63;1.30;;;;;;;11.42;100.00;97134.47;5007568;28;20048;-59
2023/09/20 03:20:26;;;;;;;3.88;1.75;;;;;;;11.45;100.00;97133.94;5004476;28;20057;-58
2023/09/20 03:22:59;;;;;;;3.70;1.35;;;;;;;11.37;100.00;97128.19;4981008;28;20141;-59
2023/09/20 03:25:36;;;;;;;5.95;1.85;;;;;;;11.28;100.00;97123.28;4985518;28;20049;-59
2023/09/20 03:28:29;;;;;;;5.95;1.60;;;;;;;11.26;100.00;97120.03;5002286;28;20176;-59
2023/09/20 03:30:56;;;;;;;4.53;1.63;;;;;;;11.34;100.00;97115.16;5005618;28;20034;-59
2023/09/20 03:33:25;;;;;;;2.45;1.30;;;;;;;11.42;100.00;97122.81;4986649;28;20505;-58
2023/09/20 03:35:52;;;;;;;3.80;1.45;;;;;;;11.41;100.00;97122.00;5004468;28;20054;-59
2023/09/20 03:38:19;;;;;;;4.85;1.45;;;;;;;11.38;100.00;97119.81;4991266;28;20045;-59
2023/09/20 03:40:46;;;;;;;3.67;1.58;;;;;;;11.42;100.00;97118.22;4981294;28;20038;-56
2023/09/20 03:43:12;;;;;;;3.58;1.52;;;;;;;11.54;100.00;97125.31;5006269;28;20042;-57
2023/09/20 03:45:45;;;;;;;3.83;1.75;;;;;;;11.69;100.00;97121.84;4986934;28;20129;-59
2023/09/20 03:48:13;;;;;;;2.47;1.27;;;;;;;11.57;100.00;97119.34;4985623;28;20045;-59
2023/09/20 03:50:43;;;;;;;2.88;1.40;;;;;;;11.52;100.00;97116.63;5004550;28;20483;-58
2023/09/20 03:53:11;;;;;;;2.47;1.25;;;;;;;11.58;100.00;97113.66;4987632;28;20442;-57
2023/09/20 03:55:45;;;;;;;3.55;1.60;;;;;;;11.82;100.00;97110.50;4988488;28;20046;-59
2023/09/20 03:58:12;;;;;;;3.97;1.58;;;;;;;11.97;100.00;97117.03;4993066;28;20050;-59
2023/09/20 04:00:39;;;;;;;3.78;1.35;;;;;;;12.05;100.00;97113.00;5008383;28;20093;-59
2023/09/20 04:03:13;;;;;;;3.22;1.70;;;;;;;12.10;100.00;97104.91;5004319;28;20664;-59
2023/09/20 04:05:40;;;;;;;6.03;1.65;;;;;;;11.98;100.00;97110.56;4987142;28;20505;-56
2023/09/20 04:08:16;;;;;;;3.58;1.48;;;;;;;11.90;100.00;97108.38;4987120;28;20476;-57
2023/09/20 04:10:45;;;;;;;3.90;1.73;;;;;;;11.91;100.00;97104.56;4987065;28;20465;-56
2023/09/20 04:13:11;;;;;;;4.10;1.48;;;;;;;11.95;100.00;97108.38;4985847;28;20137;-59
2023/09/20 04:15:40;;;;;;;4.65;1.92;;;;;;;12.10;100.00;97107.63;5003919;28;20117;-59
2023/09/20 04:18:09;;;;;;;3.45;1.50;;;;;;;12.20;100.00;97109.53;5001061;28;20060;-60
2023/09/20 04:20:36;;;;;;;4.95;1.60;;;;;;;12.14;100.00;97103.28;4993743;28;20657;-59
2023/09/20 04:23:06;;;;;;;3.40;1.23;;;;;;;12.14;100.00;97097.03;4987281;28;20096;-59
2023/09/20 04:25:32;;;;;;;4.35;1.40;;;;;;;12.10;100.00;97097.56;4970107;28;20129;-59
2023/09/20 04:27:59;;;;;;;2.75;1.30;;;;;;;12.21;100.00;97098.41;5005118;28;20034;-60
2023/09/20 04:30:26;;;;;;;3.08;1.40;;;;;;;12.24;100.00;97097.06;4986021;28;20050;-58
2023/09/20 04:32:53;;;;;;;3.58;1.42;;;;;;;12.19;100.00;97087.00;4987231;28;20030;-60
2023/09/20 04:35:27;;;;;;;3.28;1.52;;;;;;;12.26;100.00;97092.16;4987208;28;20061;-60
2023/09/20 04:37:55;;;;;;;3.92;1.58;;;;;;;12.27;100.00;97085.66;4984888;28;20037;-60
2023/09/20 04:40:24;;;;;;;4.65;1.40;;;;;;;12.34;100.00;97085.38;4989332;28;20050;-60
2023/09/20 04:42:50;;;;;;;3.92;1.55;;;;;;;12.12;100.00;97083.72;4995252;28;20069;-60
2023/09/20 04:45:19;;;;;;;3.67;2.08;;;;;;;11.83;100.00;97084.16;5002726;28;20556;-60
2023/09/20 04:47:46;;;;;;;3.50;1.90;;;;;;;11.81;100.00;97092.59;4986066;28;20248;-60
2023/09/20 04:50:13;;;;;;;4.90;2.15;;;;;;;11.87;100.00;97082.56;5004189;28;20065;-60
2023/09/20 04:52:41;;;;;;;2.83;1.20;;;;;;;11.97;100.00;97084.50;5000595;28;20100;-57
2023/09/20 04:55:10;;;;;;;4.15;1.98;;;;;;;11.96;100.00;97083.69;4986546;28;20103;-58
2023/09/20 04:57:36;;;;;;;3.35;1.42;;;;;;;11.97;100.00;97079.06;4989614;28;20053;-60
2023/09/20 05:00:06;;;;;;;4.38;1.73;;;;;;;11.84;100.00;97083.13;4984246;28;20073;-58
2023/09/20 05:02:33;;;;;;;4.25;1.52;;;;;;;11.70;100.00;97085.50;5014542;28;20042;-60
2023/09/20 05:05:00;;;;;;;4.28;1.80;;;;;;;11.87;100.00;97079.84;4983430;28;20046;-60
2023/09/20 05:07:27;;;;;;;5.40;2.30;;;;;;;11.99;100.00;97081.50;4985983;28;20464;-60
2023/09/20 05:09:56;;;;;;;4.15;1.35;;;;;;;12.06;100.00;97080.19;4998505;28;20049;-60
2023/09/20 05:12:23;;;;;;;5.18;1.80;;;;;;;11.97;100.00;97092.63;5000162;28;20048;-59
2023/09/20 05:14:50;;;;;;;3.83;1.60;;;;;;;11.79;100.00;97091.25;4984868;28;20049;-60
2023/09/20 05:17:18;;;;;;;3.58;1.50;;;;;;;11.64;100.00;97097.44;4983524;28;20069;-60
2023/09/20 05:19:45;;;;;;;4.43;2.00;;;;;;;11.56;100.00;97096.03;4983240;28;20042;-61
2023/09/20 05:22:12;;;;;;;5.78;1.80;;;;;;;11.50;100.00;97092.47;4999396;28;20061;-59
2023/09/20 05:24:39;;;;;;;4.20;1.80;;;;;;;11.54;100.00;97090.88;5002206;28;20384;-58
2023/09/20 05:27:06;;;;;;;9.20;2.25;;;;;;;11.56;100.00;97096.03;4984381;28;20048;-61
2023/09/20 05:29:32;;;;;;;5.75;2.70;;;;;;;11.56;100.00;97099.56;4998756;28;20053;-61
2023/09/20 05:31:59;;;;;;;3.53;1.58;;;;;;;11.61;100.00;97096.03;5000452;28;20105;-60
2023/09/20 05:34:26;;;;;;;3.42;1.90;;;;;;;11.65;100.00;97090.91;4999777;28;20074;-60
2023/09/20 05:36:53;;;;;;;3.03;1.65;;;;;;;11.68;100.00;97090.38;5001412;28;20038;-60
2023/09/20 05:39:19;;;;;;;7.00;2.30;;;;;;;11.74;100.00;97094.75;5000666;28;20324;-61
2023/09/20 05:41:46;;;;;;;4.50;1.63;;;;;;;11.80;100.00;97090.94;4999727;28;20046;-61
2023/09/20 05:44:13;;;;;;;3.60;1.70;;;;;;;11.85;100.00;97101.00;5002767;28;20481;-60
2023/09/20 05:46:40;;;;;;;4.57;1.85;;;;;;;11.90;100.00;97098.31;5000762;28;20108;-61
2023/09/20 05:49:06;;;;;;;5.93;2.15;;;;;;;11.88;100.00;97091.53;5001248;28;20034;-61
2023/09/20 05:51:33;;;;;;;4.68;1.98;;;;;;;11.90;100.00;97084.75;5000047;28;20239;-60
2023/09/20 05:53:59;;;;;;;3.83;1.70;;;;;;;11.96;100.00;97085.56;5001082;28;20659;-60
2023/09/20 05:56:26;;;;;;;4.15;1.67;;;;;;;11.92;100.00;97085.31;4999211;28;20601;-60
2023/09/20 05:58:53;;;;;;;3.40;1.80;;;;;;;11.93;100.00;97086.09;5000219;28;20076;-60
2023/09/20 06:01:20;;;;;;;6.45;2.08;;;;;;;12.00;100.00;97089.38;5000639;28;20089;-61
2023/09/20 06:03:47;;;;;;;4.22;1.90;;;;;;;12.06;100.00;97093.75;5000794;28;20073;-60
2023/09/20 06:06:14;;;;;;;3.17;1.65;;;;;;;12.14;100.00;97092.44;5000668;28;20056;-61
2023/09/20 06:08:42;;;;;;;4.47;1.42;;;;;;;12.25;100.00;97100.56;5000014;28;20060;-60
2023/09/20 06:11:10;;;;;;;3.38;1.80;;;;;;;12.30;100.00;97092.44;5000980;28;20054;-60
2023/09/20 06:13:38;;;;;;;3.67;1.70;;;;;;;12.39;100.00;97095.44;4984449;28;20523;-60
2023/09/20 06:16:08;;;;;;;6.43;1.90;;;;;;;12.41;100.00;97090.53;5003686;28;20041;-60
2023/09/20 06:18:35;;;;;;;4.50;1.52;;;;;;;12.46;100.00;97101.44;4998594;28;20276;-60
2023/09/20 06:21:09;;;;;;;3.90;1.60;;;;;;;12.58;100.00;97096.53;5000764;28;20088;-60
2023/09/20 06:23:35;;;;;;;3.50;1.50;;;;;;;12.72;100.00;97098.72;4996504;28;20042;-60
2023/09/20 06:26:09;;;;;;;3.20;1.50;;;;;;;12.87;100.00;97103.31;5000663;28;20061;-61
2023/09/20 06:28:36;;;;;;;3.65;1.73;;;;;;;12.95;100.00;97094.59;4999281;28;20491;-60
2023/09/20 06:31:03;;;;;;;4.53;1.90;;;;;;;13.07;100.00;97098.91;5000480;28;20510;-60
2023/09/20 06:33:30;;;;;;;2.72;1.20;;;;;;;13.21;100.00;97096.44;4998800;28;20057;-60
2023/09/20 06:35:59;;;;;;;4.35;1.75;;;;;;;13.28;100.00;97094.25;5001027;28;20050;-60
2023/09/20 06:38:25;;;;;;;3.70;1.70;;;;;;;13.33;100.00;97094.22;5000520;28;20050;-61
2023/09/20 06:40:53;;;;;;;4.57;1.45;;;;;;;13.31;100.00;97085.56;5001293;28;20053;-60
2023/09/20 06:43:19;;;;;;;3.05;1.38;;;;;;;13.35;100.00;97091.25;5001844;28;20047;-60
2023/09/20 06:45:50;;;;;;;4.75;2.15;;;;;;;13.42;100.00;97088.22;5002753;28;20069;-60
2023/09/20 06:48:22;;;;;;;3.40;1.80;;;;;;;13.49;100.00;97089.56;5003153;28;20038;-60
2023/09/20 06:50:53;;;;;;;4.90;1.45;;;;;;;13.55;100.00;97086.84;4996554;28;20396;-60
2023/09/20 06:53:20;;;;;;;5.57;1.60;;;;;;;13.57;100.00;97080.06;5003313;28;20129;-60
2023/09/20 06:55:48;;;;;;;2.78;1.40;;;;;;;13.70;100.00;97085.94;5004231;28;20119;-60
2023/09/20 06:58:15;;;;;;;3.90;1.77;;;;;;;13.81;100.00;97081.31;5004305;28;20170;-62
2023/09/20 07:00:48;;;;;;;3.97;1.67;;;;;;;13.84;100.00;97075.28;5003654;28;20113;-60
2023/09/20 07:03:15;;;;;;;2.63;1.45;;;;;;;13.86;100.00;97067.66;5004678;28;20050;-60
2023/09/20 07:05:41;;;;;;;3.97;1.67;;;;;;;13.91;100.00;97065.72;5002892;28;20050;-61
2023/09/20 07:08:09;;;;;;;3.72;1.70;;;;;;;13.94;100.00;97068.97;5004584;28;20131;-60
2023/09/20 07:10:36;;;;;;;3.53;1.30;;;;;;;14.00;100.00;97071.38;5003166;28;20061;-60
2023/09/20 07:13:05;;;;;;;3.80;1.60;;;;;;;14.09;100.00;97068.88;5002115;28;20042;-60
2023/09/20 07:15:34;;;;;;;3.40;1.55;;;;;;;14.25;100.00;97061.41;5005423;28;20061;-60
2023/09/20 07:18:11;;;;;;;3.20;1.30;;;;;;;14.34;99.59;97068.97;5006338;28;20685;-60
2023/09/20 07:20:40;;;;;;;3.67;1.40;;;;;;;14.41;99.14;97058.59;5005365;28;20042;-60
2023/09/20 07:23:10;;;;;;;6.78;1.70;;;;;;;14.43;98.37;97061.81;5005716;28;20478;-60
2023/09/20 07:25:38;;;;;;;3.65;1.48;;;;;;;14.52;98.13;97054.66;5005256;28;20081;-60
2023/09/20 07:28:06;;;;;;;3.97;1.50;;;;;;;14.53;97.99;97060.94;5005925;28;20113;-60
2023/09/20 07:30:39;;;;;;;3.30;1.60;;;;;;;14.67;97.53;97059.16;5004177;28;20121;-60
2023/09/20 07:33:11;;;;;;;4.53;1.98;;;;;;;14.72;97.41;97065.66;5005795;28;20534;-60
2023/09/20 07:35:49;;;;;;;3.10;1.23;;;;;;;14.76;97.59;97064.00;5004435;28;20056;-60
2023/09/20 07:38:27;;;;;;;2.97;1.40;;;;;;;14.83;97.34;97059.06;5005224;28;20152;-60
2023/09/20 07:41:17;;;;;;;3.88;1.40;;;;;;;14.92;96.05;97061.94;5004546;28;20034;-60
2023/09/20 07:43:47;;;;;;;4.25;1.63;;;;;;;15.00;95.99;97057.81;5005413;28;20074;-61
2023/09/20 07:46:14;;;;;;;3.92;1.67;;;;;;;15.07;95.43;97061.81;5002324;28;20946;-61
2023/09/20 07:48:48;;;;;;;4.68;1.60;;;;;;;15.13;94.58;97061.75;5008145;28;20058;-59
2023/09/20 07:51:23;;;;;;;2.95;1.50;;;;;;;15.21;94.34;97061.94;5003741;28;20054;-61
2023/09/20 07:53:53;;;;;;;3.28;1.45;;;;;;;15.34;93.65;97057.69;5004305;28;20073;-61
2023/09/20 07:56:20;;;;;;;3.50;1.27;;;;;;;15.50;92.72;97057.50;5007150;28;20046;-60
2023/09/20 07:58:47;;;;;;;3.58;1.27;;;;;;;15.63;92.20;97055.16;4999885;28;20100;-60
2023/09/20 08:01:20;;;;;;;4.28;1.50;;;;;;;15.68;91.03;97049.63;5001733;28;20056;-62
2023/09/20 08:03:51;;;;;;;3.70;1.20;;;;;;;15.78;90.02;97051.41;5003627;28;20136;-60
2023/09/20 08:06:33;;;;;;;4.43;1.38;;;;;;;15.89;90.86;97049.34;5003154;28;20133;-61
2023/09/20 08:09:00;;;;;;;3.17;1.53;;;;;;;16.12;89.50;97053.97;5001751;28;20042;-61
2023/09/20 08:11:28;;;;;;;3.58;1.42;;;;;;;16.23;89.43;97048.34;5000844;28;20050;-61
2023/09/20 08:13:57;;;;;;;2.33;1.08;;;;;;;16.35;88.74;97051.44;5002728;28;20117;-61
2023/09/20 08:16:25;;;;;;;2.45;1.15;;;;;;;16.43;87.25;97047.19;5002628;28;20056;-61
2023/09/20 08:19:21;;;;;;;3.80;1.40;;;;;;;16.47;87.51;97044.69;5003053;28;20341;-61
2023/09/20 08:21:48;;;;;;;3.70;1.40;;;;;;;16.52;87.80;97037.19;5002409;28;20092;-60
2023/09/20 09:00:21;;;;;;;3.28;1.25;;;;;;;18.48;78.30;97042.84;4997873;28;20135;-61
2023/09/20 09:02:52;;;;;;;13.20;3.17;;;;;;;18.79;77.08;97036.63;5000661;28;20049;-61
2023/09/20 09:05:21;;;;;;;5.15;1.80;;;;;;;19.01;73.47;97041.22;5002177;28;20045;-61
2023/09/20 09:07:49;;;;;;;4.97;1.33;;;;;;;19.09;71.65;97034.22;5001597;28;20682;-61
2023/09/20 09:10:16;;;;;;;4.07;1.30;;;;;;;19.32;69.61;97039.63;5002543;28;20512;-61
2023/09/20 09:12:43;;;;;;;2.20;0.98;;;;;;;19.41;68.98;97032.22;5001727;28;20041;-61
2023/09/20 09:15:16;;;;;;;3.72;1.08;;;;;;;19.52;69.71;97031.91;5000933;28;20046;-61
2023/09/20 09:17:47;;;;;;;3.08;1.15;;;;;;;19.70;68.60;97041.81;5001499;28;20069;-60
2023/09/20 09:20:15;;;;;;;4.63;1.52;;;;;;;19.85;63.71;97026.00;5001778;28;20046;-61
2023/09/20 09:22:44;;;;;;;2.47;1.00;;;;;;;19.91;65.31;97032.97;5000853;28;20042;-61
2023/09/20 09:25:18;;;;;;;3.90;1.10;;;;;;;19.80;65.20;97028.91;5002396;28;20432;-61
2023/09/20 09:27:44;;;;;;;3.40;1.10;;;;;;;19.70;65.02;97032.75;5001411;28;20056;-61
2023/09/20 09:30:16;;;;;;;3.20;1.00;;;;;;;19.81;64.83;97030.50;5002322;28;20520;-61
2023/09/20 09:32:43;;;;;;;;;;;;;;;19.94;65.63;97034.25;5009107;28;20034;-61
2023/09/20 09:35:12;;;;;;;2.85;1.30;;;;;;;20.03;65.43;97024.09;5002479;28;20012;-60
2023/09/20 09:37:43;;;;;;;3.05;1.00;;;;;;;20.14;63.44;97021.84;5000866;28;20054;-61
2023/09/20 09:40:14;;;;;;;4.18;1.40;;;;;;;20.14;62.38;97025.41;5001653;28;20053;-60
2023/09/20 09:42:43;;;;;;;4.13;1.45;;;;;;;20.12;61.72;97016.66;5001906;28;20041;-61
2023/09/20 09:45:10;;;;;;;3.92;1.60;;;;;;;20.17;61.52;97004.69;5002557;28;20452;-61
2023/09/20 09:47:37;;;;;;;4.55;1.30;;;;;;;20.32;59.51;97022.63;5000308;28;20528;-60
2023/09/20 09:50:06;;;;;;;3.40;1.20;;;;;;;20.36;58.71;97011.78;5001170;28;20485;-61
2023/09/20 09:52:38;;;;;;;2.42;1.10;;;;;;;20.47;58.62;97007.56;5000060;28;20050;-60
2023/09/20 09:55:06;;;;;;;3.55;1.60;;;;;;;20.50;58.75;97000.63;5002430;28;20065;-61
2023/09/20 09:57:32;;;;;;;3.95;1.20;;;;;;;20.61;58.84;97003.81;5000326;28;20541;-61
2023/09/20 10:00:00;;;;;;;4.22;1.35;;;;;;;20.65;58.38;97000.06;5001788;28;20293;-60
2023/09/20 10:02:41;;;;;;;4.40;1.23;;;;;;;20.52;57.54;96987.34;5000259;28;20061;-61
2023/09/20 10:05:12;;;;;;;2.70;1.13;;;;;;;20.47;57.23;96990.25;5000726;28;20399;-61
2023/09/20 10:07:41;;;;;;;2.97;1.20;;;;;;;20.50;57.62;96992.38;4999909;28;20100;-61
2023/09/20 10:10:16;;;;;;;4.97;1.20;;;;;;;20.60;57.44;96982.97;5001817;28;20050;-61
2023/09/20 10:12:45;;;;;;;3.25;1.40;;;;;;;20.71;57.05;96983.41;5000567;28;20049;-61
2023/09/20 10:15:14;;;;;;;3.78;1.27;;;;;;;20.71;55.51;96986.16;5002002;28;20045;-61
2023/09/20 10:17:51;;;;;;;2.97;1.27;;;;;;;20.74;57.08;96991.00;4999599;28;20799;-61
2023/09/20 10:20:18;;;;;;;3.15;1.15;;;;;;;20.77;56.55;96982.91;5001361;28;20523;-61
2023/09/20 10:22:49;;;;;;;3.40;1.40;;;;;;;20.87;55.82;96981.78;5000665;28;20050;-60
2023/09/20 10:25:32;;;;;;;3.53;1.27;;;;;;;21.07;53.04;96987.66;5001458;28;20048;-60
2023/09/20 10:28:04;;;;;;;3.22;1.45;;;;;;;21.15;52.47;96978.56;5005043;28;20520;-61
2023/09/20 10:30:34;;;;;;;3.53;1.45;;;;;;;21.30;53.25;96968.94;5003320;28;20046;-61
2023/09/20 10:33:04;;;;;;;5.55;1.73;;;;;;;21.44;55.24;96967.88;5004769;28;20042;-61
2023/09/20 10:35:31;;;;;;;3.42;1.40;;;;;;;21.50;53.52;96962.97;5004245;28;20116;-61
2023/09/20 10:38:23;;;;;;;2.67;1.33;;;;;;;21.55;54.09;96960.03;5007112;28;20046;-60
2023/09/20 10:40:59;;;;;;;6.00;1.40;;;;;;;21.64;51.97;96955.25;5004144;28;20050;-61
2023/09/20 10:43:35;;;;;;;2.92;1.33;;;;;;;21.71;50.44;96946.47;5005606;28;20475;-61
2023/09/20 10:46:09;;;;;;;2.72;1.25;;;;;;;21.77;49.35;96947.91;5005115;28;20416;-61
2023/09/20 10:48:41;;;;;;;3.65;1.50;;;;;;;21.80;49.06;96940.91;5003835;28;20412;-61
2023/09/20 10:51:08;;;;;;;2.97;1.42;;;;;;;21.79;48.93;96934.63;5004356;28;20049;-60
2023/09/20 10:53:44;;;;;;;4.32;1.60;;;;;;;21.80;50.06;96938.97;5008701;28;20056;-61
2023/09/20 10:56:32;;;;;;;6.88;1.70;;;;;;;21.84;50.44;96936.34;5004283;28;20046;-61
2023/09/20 10:58:59;;;;;;;3.63;1.48;;;;;;;21.95;50.22;96932.03;5002679;28;20057;-61
2023/09/20 11:01:26;;;;;;;3.10;1.35;;;;;;;22.03;46.66;96924.00;5004558;28;20049;-60
2023/09/20 11:03:54;;;;;;;4.00;1.75;;;;;;;22.03;46.84;96924.81;5004501;28;20425;-61
2023/09/20 11:06:21;;;;;;;3.38;1.67;;;;;;;21.95;46.73;96910.00;5004574;28;20487;-60
2023/09/20 11:08:48;;;;;;;3.13;1.63;;;;;;;22.06;46.61;96909.56;5003716;28;20046;-61
2023/09/20 11:11:15;;;;;;;3.95;1.45;;;;;;;22.06;48.56;96915.88;5004625;28;20065;-61
2023/09/20 11:13:46;;;;;;;4.20;1.73;;;;;;;22.18;47.06;96906.03;5003100;28;20253;-61
2023/09/20 11:16:17;;;;;;;;;;;;;;;22.07;46.61;96906.47;5003108;28;20108;-61
2023/09/20 11:18:45;;;;;;;4.35;1.85;;;;;;;22.23;48.86;96903.06;5003125;28;20291;-61
2023/09/20 11:21:11;;;;;;;4.55;1.90;;;;;;;22.25;46.72;96902.75;5004129;28;20045;-61
2023/09/20 11:23:38;;;;;;;4.45;1.70;;;;;;;22.28;48.50;96891.00;5003333;28;20246;-61
2023/09/20 11:26:05;;;;;;;3.22;1.83;;;;;;;22.36;46.00;96895.63;5004823;28;20077;-61
2023/09/20 11:28:32;;;;;;;5.90;1.73;;;;;;;22.57;45.42;96892.00;5003525;28;20079;-61
2023/09/20 11:30:59;;;;;;;3.97;1.40;;;;;;;22.44;45.59;96894.72;5004352;28;20057;-61
2023/09/20 11:33:29;;;;;;;3.60;1.60;;;;;;;22.40;46.12;96882.75;5003833;28;20583;-61
2023/09/20 11:35:56;;;;;;;4.70;1.83;;;;;;;22.55;48.28;96888.81;4996822;28;20074;-61
2023/09/20 11:38:23;;;;;;;4.50;1.92;;;;;;;22.62;46.61;96888.22;5003395;28;20132;-61
2023/09/20 11:40:51;;;;;;;4.07;1.70;;;;;;;22.55;45.53;96888.81;5002847;28;20049;-61
2023/09/20 11:43:20;;;;;;;4.30;1.52;;;;;;;22.55;46.46;96878.56;5003533;28;20037;-61
2023/09/20 11:45:52;;;;;;;4.22;1.80;;;;;;;22.60;45.37;96874.78;5003054;28;22477;-61
2023/09/20 11:48:27;;;;;;;4.43;1.63;;;;;;;22.81;47.25;96882.16;5003729;28;20065;-60
2023/09/20 11:50:54;;;;;;;4.00;1.77;;;;;;;22.95;45.78;96881.78;4996303;28;20178;-61
2023/09/20 11:53:21;;;;;;;4.05;1.83;;;;;;;22.83;44.38;96863.28;5003922;28;20498;-60
2023/09/20 11:55:48;;;;;;;3.67;1.67;;;;;;;22.98;45.97;96861.75;5002767;28;20077;-61
2023/09/20 11:58:20;;;;;;;4.60;2.10;;;;;;;23.15;42.61;96854.38;5003891;28;20117;-60
2023/09/20 12:00:47;;;;;;;5.00;1.98;;;;;;;23.29;42.55;96859.53;5002919;28;20061;-61
2023/09/20 12:03:14;;;;;;;3.85;1.98;;;;;;;23.36;41.41;96854.25;5003955;28;20074;-60
2023/09/20 12:05:42;;;;;;;4.13;2.20;;;;;;;23.38;40.89;96854.72;5003136;28;20391;-60
2023/09/20 12:08:09;;;;;;;3.67;1.85;;;;;;;23.31;42.60;96847.00;5003427;28;20049;-60
2023/09/20 12:10:35;;;;;;;3.60;1.92;;;;;;;23.25;41.92;96837.31;5002137;28;20054;-60
2023/09/20 12:13:03;;;;;;;4.35;1.85;;;;;;;23.27;44.44;96835.03;5003403;28;20041;-60
2023/09/20 12:15:32;;;;;;;4.10;1.90;;;;;;;23.59;42.79;96845.44;5003194;28;20050;-60